Time;durP1;ratioP1;P1;durP2;ratioP2;P2;SDS_P1;SDS_P2;PMS_P1;PMS_P2;Temp;Humidity;BMP_temperature;BMP_pressure;BME280_temperature;BME280_humidity;BME280_pressure;Samples;Min_cycle;Max_cycle;Signal;HPM_P1;HPM_P2
2021/11/14 00:00:43;;;;;;;67.90;31.70;;;;;;;5.51;67.15;100609.25;24335;1363;3026532;-75
2021/11/14 00:03:12;;;;;;;72.30;32.70;;;;;;;5.27;67.83;100606.08;24363;1356;3052891;-72
2021/11/14 00:05:42;;;;;;;60.10;29.80;;;;;;;5.12;68.21;100608.29;24353;1360;3169806;-76
2021/11/14 00:08:12;;;;;;;56.70;28.20;;;;;;;4.98;68.49;100605.79;24501;1360;3028336;-73
2021/11/14 00:10:52;;;;;;;59.00;25.60;;;;;;;4.79;69.05;100606.84;24476;1358;3054825;-71
2021/11/14 00:13:21;;;;;;;46.70;22.50;;;;;;;4.63;69.36;100609.56;24454;1360;3028386;-72
2021/11/14 00:15:50;;;;;;;45.30;21.40;;;;;;;4.54;69.39;100609.55;24450;1358;3026559;-75
2021/11/14 00:18:20;;;;;;;50.50;24.10;;;;;;;4.45;69.76;100608.31;24409;1358;3028636;-71
2021/11/14 00:20:49;;;;;;;51.80;23.50;;;;;;;4.41;70.02;100604.05;24407;1356;3026968;-72
2021/11/14 00:23:18;;;;;;;50.30;22.80;;;;;;;4.36;69.94;100599.79;24456;1354;3026285;-73
2021/11/14 00:25:47;;;;;;;46.00;19.90;;;;;;;4.31;70.35;100600.55;24439;1355;3049069;-71
2021/11/14 00:28:17;;;;;;;43.20;19.90;;;;;;;4.86;69.17;100595.23;24484;1357;3026763;-74
2021/11/14 00:30:51;;;;;;;42.50;20.40;;;;;;;5.55;67.43;100597.67;24485;1356;3059197;-74
2021/11/14 00:33:21;;;;;;;48.80;22.70;;;;;;;5.64;66.51;100597.66;24448;1358;3029437;-71
2021/11/14 00:35:52;;;;;;;49.10;22.10;;;;;;;5.56;66.64;100592.27;24409;1359;3052781;-73
2021/11/14 00:38:21;;;;;;;49.10;24.60;;;;;;;5.41;66.62;100594.14;24376;1363;3026892;-75
2021/11/14 00:40:51;;;;;;;49.60;28.10;;;;;;;5.21;66.91;100590.92;24471;1355;3026883;-76
2021/11/14 00:43:20;;;;;;;48.80;27.20;;;;;;;5.01;67.31;100588.54;24470;1357;3026467;-76
2021/11/14 00:45:49;;;;;;;49.00;26.80;;;;;;;4.88;67.54;100586.71;24458;1357;3026662;-76
2021/11/14 00:48:19;;;;;;;47.90;26.60;;;;;;;4.75;67.85;100585.91;24443;1360;3051374;-77
2021/11/14 00:50:49;;;;;;;46.60;23.70;;;;;;;4.63;68.12;100588.39;24447;1363;3026554;-76
2021/11/14 00:53:18;;;;;;;40.40;20.40;;;;;;;4.55;68.00;100588.19;24448;1362;3026458;-71
2021/11/14 00:55:48;;;;;;;40.30;22.10;;;;;;;4.46;68.28;100591.80;24478;1362;3051617;-73
2021/11/14 00:58:17;;;;;;;48.70;24.20;;;;;;;4.39;68.46;100596.63;24427;1356;3029555;-73
2021/11/14 01:00:46;;;;;;;45.70;20.80;;;;;;;4.29;68.73;100600.27;24393;1356;3027092;-76
2021/11/14 01:03:15;;;;;;;44.00;20.70;;;;;;;4.25;68.86;100598.93;24458;1361;3026615;-72
2021/11/14 01:05:48;;;;;;;43.90;21.30;;;;;;;4.17;69.21;100598.55;24447;1357;3026869;-69
2021/11/14 01:08:17;;;;;;;40.30;19.00;;;;;;;4.10;69.40;100601.95;24496;1362;3026836;-73
2021/11/14 01:10:51;;;;;;;44.70;20.70;;;;;;;4.05;69.55;100601.15;24463;1354;3067256;-75
2021/11/14 01:13:21;;;;;;;46.20;18.50;;;;;;;4.00;70.09;100599.49;24525;1356;3051747;-73
2021/11/14 01:15:51;;;;;;;41.20;19.30;;;;;;;4.60;69.19;100600.94;24504;1360;3026307;-74
2021/11/14 01:18:20;;;;;;;45.80;21.00;;;;;;;5.25;67.17;100599.01;24457;1363;3070880;-75
2021/11/14 01:20:52;;;;;;;48.90;22.90;;;;;;;5.37;66.54;100599.28;24484;1357;3026540;-73
2021/11/14 01:23:21;;;;;;;45.80;20.50;;;;;;;5.31;66.35;100604.45;24490;1357;3027565;-77
2021/11/14 01:25:51;;;;;;;50.90;21.70;;;;;;;5.12;66.62;100604.64;24485;1362;3026780;-74
2021/11/14 01:28:20;;;;;;;48.70;22.30;;;;;;;4.94;66.89;100608.30;24406;1357;3048838;-72
2021/11/14 01:30:51;;;;;;;43.80;20.90;;;;;;;4.71;67.49;100613.41;24458;1361;3028424;-73
2021/11/14 01:33:22;;;;;;;56.40;23.20;;;;;;;4.53;68.20;100614.95;24446;1360;3070540;-70
2021/11/14 01:35:53;;;;;;;42.50;21.40;;;;;;;4.41;68.40;100616.18;24465;1363;3029061;-73
2021/11/14 01:38:24;;;;;;;44.20;21.70;;;;;;;4.32;68.67;100617.89;24442;1360;3028229;-72
2021/11/14 01:40:58;;;;;;;46.80;21.50;;;;;;;4.18;68.91;100616.04;24441;1363;3026467;-73
2021/11/14 01:43:33;;;;;;;52.10;23.60;;;;;;;4.08;69.52;100616.73;24466;1361;3055544;-74
2021/11/14 01:46:03;;;;;;;51.00;22.00;;;;;;;3.96;70.27;100620.70;24448;1360;3051375;-72
2021/11/14 01:48:32;;;;;;;47.90;25.00;;;;;;;3.82;70.85;100616.59;24457;1362;3026412;-75
2021/11/14 01:51:01;;;;;;;55.70;24.50;;;;;;;3.80;70.23;100612.62;24459;1360;3026615;-74
2021/11/14 01:53:30;;;;;;;53.20;26.40;;;;;;;3.78;70.52;100615.26;24387;1355;3049250;-74
2021/11/14 01:55:59;;;;;;;58.60;24.00;;;;;;;3.73;70.73;100617.94;24390;1360;3027252;-77
2021/11/14 01:58:28;;;;;;;50.80;22.70;;;;;;;4.29;69.85;100614.30;24473;1360;3027064;-74
2021/11/14 02:00:59;;;;;;;50.50;23.20;;;;;;;4.89;67.92;100613.77;24498;1357;3049246;-76
2021/11/14 02:03:28;;;;;;;50.30;23.00;;;;;;;5.03;67.34;100615.77;24459;1357;3026381;-73
2021/11/14 02:05:59;;;;;;;51.10;24.00;;;;;;;4.92;67.12;100619.45;24436;1355;3026240;-76
2021/11/14 02:08:28;;;;;;;56.60;24.30;;;;;;;4.72;67.40;100621.89;24441;1357;3028715;-74
2021/11/14 02:10:57;;;;;;;49.50;22.70;;;;;;;4.52;67.68;100624.15;24427;1359;3027018;-73
2021/11/14 02:13:26;;;;;;;54.10;25.00;;;;;;;4.34;68.13;100623.77;24443;1360;3026603;-73
2021/11/14 02:15:55;;;;;;;46.50;22.80;;;;;;;4.17;68.42;100626.47;24466;1357;3068133;-75
2021/11/14 02:18:24;;;;;;;49.30;21.10;;;;;;;4.04;68.76;100628.40;24473;1359;3026892;-73
2021/11/14 02:20:54;;;;;;;39.30;19.50;;;;;;;3.91;69.14;100630.84;24403;1361;3027415;-75
2021/11/14 02:23:23;;;;;;;43.70;20.40;;;;;;;3.80;69.37;100625.44;24458;1363;3068083;-73
2021/11/14 02:25:53;;;;;;;48.80;20.00;;;;;;;3.73;69.58;100627.63;24490;1355;3026408;-77
2021/11/14 02:28:22;;;;;;;45.00;18.90;;;;;;;3.64;69.91;100628.10;24499;1360;3026652;-77
2021/11/14 02:30:52;;;;;;;43.00;19.40;;;;;;;3.56;70.03;100633.75;24448;1357;3067624;-75
2021/11/14 02:33:21;;;;;;;43.20;19.50;;;;;;;3.48;70.26;100633.67;24489;1356;3026229;-77
2021/11/14 02:35:56;;;;;;;48.00;20.20;;;;;;;3.42;70.68;100629.07;24492;1354;3026935;-72
2021/11/14 02:38:26;;;;;;;45.50;20.00;;;;;;;3.38;70.75;100628.43;24469;1360;3070996;-74
2021/11/14 02:40:55;;;;;;;42.70;17.80;;;;;;;3.33;71.25;100632.65;24441;1363;3026601;-75
2021/11/14 02:43:24;;;;;;;37.10;17.90;;;;;;;3.89;70.16;100629.13;24480;1359;3029104;-73
2021/11/14 02:45:53;;;;;;;36.70;17.50;;;;;;;4.51;68.50;100626.94;24467;1361;3028101;-74
2021/11/14 02:48:22;;;;;;;41.80;19.20;;;;;;;4.61;67.79;100623.12;24461;1359;3049452;-76
2021/11/14 02:50:53;;;;;;;47.00;19.60;;;;;;;4.48;67.71;100621.10;24479;1357;3026410;-75
2021/11/14 02:53:25;;;;;;;44.40;20.90;;;;;;;4.30;68.24;100619.14;24486;1356;3070551;-72
2021/11/14 02:55:54;;;;;;;54.20;22.00;;;;;;;4.13;68.49;100616.98;24503;1360;3026537;-75
2021/11/14 02:58:23;;;;;;;41.40;20.70;;;;;;;3.92;69.17;100613.99;24522;1357;3050218;-71
2021/11/14 03:01:02;;;;;;;49.40;22.20;;;;;;;3.83;69.26;100618.13;24490;1360;3027633;-69
2021/11/14 03:03:33;;;;;;;44.90;21.50;;;;;;;3.75;69.66;100619.64;24474;1361;3049473;-72
2021/11/14 03:06:02;;;;;;;47.10;21.20;;;;;;;3.61;69.96;100617.05;24456;1360;3026620;-72
2021/11/14 03:08:32;;;;;;;45.40;21.00;;;;;;;3.52;70.48;100618.73;24514;1356;3026489;-74
2021/11/14 03:11:02;;;;;;;47.10;21.60;;;;;;;3.41;70.87;100621.30;24485;1355;3026747;-77
2021/11/14 03:13:31;;;;;;;43.70;20.10;;;;;;;3.35;70.92;100622.92;24500;1357;3028544;-75
2021/11/14 03:16:02;;;;;;;47.30;20.20;;;;;;;3.30;71.02;100619.17;24497;1357;3026919;-73
2021/11/14 03:18:32;;;;;;;39.10;16.60;;;;;;;3.27;71.07;100620.25;24497;1359;3055895;-75
2021/11/14 03:21:02;;;;;;;44.90;18.10;;;;;;;3.77;70.45;100621.33;24488;1355;3026669;-73
2021/11/14 03:23:31;;;;;;;41.30;21.00;;;;;;;4.36;68.79;100621.64;24493;1355;3054707;-76
2021/11/14 03:26:01;;;;;;;48.90;19.70;;;;;;;4.45;68.01;100622.20;24528;1355;3026155;-75
2021/11/14 03:28:30;;;;;;;43.60;20.20;;;;;;;4.37;68.33;100623.55;24498;1360;3054455;-75
2021/11/14 03:31:00;;;;;;;38.50;20.00;;;;;;;4.17;69.28;100623.69;24468;1364;3027564;-75
2021/11/14 03:33:30;;;;;;;48.30;20.60;;;;;;;4.03;69.32;100625.46;24495;1360;3026715;-75
2021/11/14 03:36:10;;;;;;;48.10;21.80;;;;;;;3.91;69.11;100620.28;24440;1360;3026454;-72
2021/11/14 03:38:44;;;;;;;39.60;17.80;;;;;;;3.70;69.70;100620.05;24441;1363;3054369;-73
2021/11/14 03:41:17;;;;;;;;;;;;;;;3.58;69.86;100617.95;24470;1355;3056112;-76
2021/11/14 03:43:47;;;;;;;38.50;17.20;;;;;;;3.39;70.69;100622.02;24440;1355;3049938;-74
2021/11/14 03:46:16;;;;;;;44.90;19.90;;;;;;;3.28;70.83;100623.88;24501;1358;3026015;-72
2021/11/14 03:48:46;;;;;;;53.10;21.70;;;;;;;3.20;71.36;100623.80;24496;1356;3027041;-76
2021/11/14 03:51:16;;;;;;;49.60;22.40;;;;;;;3.12;71.76;100623.21;24500;1360;3049069;-72
2021/11/14 03:53:45;;;;;;;52.40;22.80;;;;;;;3.05;72.01;100623.80;24508;1358;3026361;-72
2021/11/14 03:56:15;;;;;;;54.30;20.40;;;;;;;3.01;72.36;100629.38;24535;1358;3058362;-71
2021/11/14 03:58:44;;;;;;;51.90;21.10;;;;;;;3.52;71.36;100627.20;24544;1357;3026572;-74
2021/11/14 04:01:19;;;;;;;53.60;22.10;;;;;;;4.21;69.68;100628.48;24584;1360;3051695;-72
2021/11/14 04:03:50;;;;;;;56.30;24.60;;;;;;;4.33;68.71;100626.55;24633;1354;3057706;-74
2021/11/14 04:06:20;;;;;;;51.70;23.80;;;;;;;4.16;68.77;100624.58;24618;1362;3026857;-71
2021/11/14 04:08:50;;;;;;;58.80;25.00;;;;;;;3.96;69.49;100628.17;24644;1358;3026605;-74
2021/11/14 04:11:19;;;;;;;60.90;25.50;;;;;;;3.77;69.77;100629.30;24552;1355;3027046;-75
2021/11/14 04:13:49;;;;;;;56.50;25.60;;;;;;;3.58;70.38;100630.79;24395;1358;3026942;-71
2021/11/14 04:16:18;;;;;;;52.30;25.30;;;;;;;3.47;70.60;100631.27;24508;1353;3056013;-75
2021/11/14 04:18:47;;;;;;;50.20;25.00;;;;;;;3.34;70.98;100635.05;24500;1350;3028688;-71
2021/11/14 04:21:16;;;;;;;50.80;22.90;;;;;;;3.26;70.95;100635.52;24465;1360;3049843;-75
2021/11/14 04:23:46;;;;;;;50.80;23.80;;;;;;;3.16;71.53;100634.58;24476;1353;3026484;-74
2021/11/14 04:26:15;;;;;;;54.60;23.30;;;;;;;3.06;71.90;100637.29;24436;1357;3026403;-75
2021/11/14 04:28:44;;;;;;;51.90;23.20;;;;;;;2.94;72.69;100640.88;24424;1357;3051575;-77
2021/11/14 04:31:13;;;;;;;43.30;18.60;;;;;;;2.90;72.61;100643.00;24475;1355;3026847;-73
2021/11/14 04:33:43;;;;;;;53.10;21.00;;;;;;;3.43;71.90;100645.86;24466;1355;3057863;-78
2021/11/14 04:36:14;;;;;;;48.10;21.70;;;;;;;4.02;69.71;100642.64;24480;1359;3026135;-75
2021/11/14 04:38:43;;;;;;;46.10;21.00;;;;;;;4.19;69.16;100645.69;24470;1358;3027285;-75
2021/11/14 04:41:12;;;;;;;49.00;21.70;;;;;;;4.09;68.89;100647.73;24481;1354;3026267;-75
2021/11/14 04:43:42;;;;;;;47.40;22.10;;;;;;;3.87;69.32;100649.10;24475;1356;3051446;-70
2021/11/14 04:46:11;;;;;;;48.00;21.60;;;;;;;3.66;69.62;100650.94;24494;1359;3026254;-76
2021/11/14 04:48:40;;;;;;;47.30;21.50;;;;;;;3.49;70.41;100662.77;24455;1356;3055485;-71
2021/11/14 04:51:09;;;;;;;53.20;23.10;;;;;;;3.33;70.96;100663.14;24456;1357;3028751;-73
2021/11/14 04:53:38;;;;;;;50.50;23.20;;;;;;;3.19;71.62;100665.55;24462;1356;3050195;-72
2021/11/14 04:56:07;;;;;;;64.60;25.70;;;;;;;3.13;71.38;100663.70;24506;1360;3026637;-73
2021/11/14 04:58:36;;;;;;;53.00;24.70;;;;;;;3.01;72.07;100675.77;24421;1357;3054739;-73
2021/11/14 05:01:05;;;;;;;50.50;25.90;;;;;;;2.90;72.76;100686.45;24487;1357;3026983;-73
2021/11/14 05:03:35;;;;;;;57.70;20.90;;;;;;;2.82;73.10;100682.02;24453;1357;3051604;-76
2021/11/14 05:06:08;;;;;;;62.50;22.90;;;;;;;3.40;71.91;100678.09;24467;1357;3026459;-74
2021/11/14 05:08:38;;;;;;;45.20;21.20;;;;;;;4.01;69.95;100675.78;24455;1359;3070422;-79
2021/11/14 05:11:07;;;;;;;47.70;22.10;;;;;;;4.09;69.54;100683.81;24462;1360;3028156;-76
2021/11/14 05:13:36;;;;;;;49.00;22.40;;;;;;;3.97;69.73;100683.98;24423;1357;3050553;-72
2021/11/14 05:16:05;;;;;;;51.30;23.40;;;;;;;3.75;70.12;100683.93;24377;1354;3027479;-73
2021/11/14 05:18:35;;;;;;;55.00;24.30;;;;;;;3.62;70.69;100689.29;24441;1356;3026700;-76
2021/11/14 05:21:04;;;;;;;55.80;24.20;;;;;;;3.49;71.03;100696.55;24458;1357;3050988;-70
2021/11/14 05:23:33;;;;;;;49.50;22.50;;;;;;;3.36;71.15;100701.55;24478;1360;3026432;-77
2021/11/14 05:26:02;;;;;;;54.60;22.90;;;;;;;3.23;71.63;100710.52;24447;1362;3026643;-71
2021/11/14 05:28:32;;;;;;;58.00;23.70;;;;;;;3.13;71.81;100717.73;24476;1357;3026360;-76
2021/11/14 05:31:00;;;;;;;44.60;21.80;;;;;;;3.03;72.28;100720.07;24470;1355;3030320;-76
2021/11/14 05:33:30;;;;;;;49.80;24.20;;;;;;;3.01;72.30;100723.55;24516;1361;3051544;-75
2021/11/14 05:35:59;;;;;;;55.80;23.70;;;;;;;2.95;72.52;100725.50;24446;1362;3026923;-75
2021/11/14 05:38:27;;;;;;;53.70;20.00;;;;;;;2.93;72.41;100724.48;24461;1353;3071546;-73
2021/11/14 05:40:56;;;;;;;45.80;19.60;;;;;;;3.50;71.10;100719.73;24479;1357;3027366;-74
2021/11/14 05:43:25;;;;;;;45.30;20.70;;;;;;;4.18;68.65;100717.83;24479;1356;3055331;-72
2021/11/14 05:45:54;;;;;;;52.90;22.70;;;;;;;4.35;67.60;100715.69;24398;1360;3026611;-75
2021/11/14 05:48:23;;;;;;;44.10;21.20;;;;;;;4.27;67.69;100715.80;24418;1356;3052210;-74
2021/11/14 05:50:52;;;;;;;55.20;25.80;;;;;;;4.19;67.78;100715.58;24615;1357;3026590;-71
2021/11/14 05:53:21;;;;;;;58.90;31.70;;;;;;;4.06;67.86;100721.83;24771;1360;3050453;-73
2021/11/14 05:55:50;;;;;;;54.50;27.70;;;;;;;3.97;67.90;100718.98;24870;1360;3028487;-71
2021/11/14 05:58:24;;;;;;;56.10;29.00;;;;;;;3.93;68.04;100720.25;24742;1356;3055998;-72
2021/11/14 06:01:06;;;;;;;;;;;;;;;3.88;68.28;100723.97;24805;1355;3049503;-70
2021/11/14 06:06:05;;;;;;;62.40;33.10;;;;;;;3.72;68.80;100725.55;24806;1356;3026599;-70
2021/11/14 06:08:35;;;;;;;55.80;28.60;;;;;;;3.79;68.45;100728.06;24831;1347;3049641;-72
2021/11/14 06:11:05;;;;;;;56.60;24.80;;;;;;;3.83;68.25;100729.73;24828;1360;3026675;-73
2021/11/14 06:13:34;;;;;;;48.30;24.00;;;;;;;3.85;68.11;100731.11;24733;1362;3026409;-70
2021/11/14 06:16:04;;;;;;;52.00;23.10;;;;;;;3.87;68.17;100730.56;24794;1357;3052104;-70
2021/11/14 06:18:33;;;;;;;51.40;22.40;;;;;;;3.88;68.38;100728.48;24765;1356;3027833;-72
2021/11/14 06:21:02;;;;;;;48.80;22.90;;;;;;;3.91;68.12;100724.29;24823;1356;3055615;-70
2021/11/14 06:23:31;;;;;;;45.00;21.50;;;;;;;3.90;68.16;100723.61;24795;1355;3028714;-69
2021/11/14 06:26:00;;;;;;;53.40;23.00;;;;;;;3.96;68.08;100719.17;24774;1357;3054265;-71
2021/11/14 06:28:29;;;;;;;44.60;22.00;;;;;;;3.99;68.03;100716.72;24786;1356;3028095;-78
2021/11/14 06:30:58;;;;;;;46.40;20.80;;;;;;;4.08;67.65;100717.45;24775;1355;3052249;-71
2021/11/14 06:33:27;;;;;;;48.00;21.90;;;;;;;4.14;67.43;100717.89;24850;1357;3026829;-71
2021/11/14 06:35:56;;;;;;;41.90;19.90;;;;;;;4.19;67.14;100722.16;24701;1353;3026934;-75
2021/11/14 06:38:25;;;;;;;50.80;21.50;;;;;;;4.22;66.69;100720.91;24530;1363;3054284;-76
2021/11/14 06:40:54;;;;;;;42.30;19.50;;;;;;;4.32;66.61;100721.98;24481;1360;3028842;-74
2021/11/14 06:43:23;;;;;;;50.50;21.00;;;;;;;4.40;66.50;100723.24;24474;1357;3050756;-71
2021/11/14 06:45:52;;;;;;;45.80;18.60;;;;;;;4.43;66.46;100724.08;24464;1356;3026608;-70
2021/11/14 06:48:22;;;;;;;46.50;19.30;;;;;;;4.45;66.28;100719.52;24457;1360;3067846;-69
2021/11/14 06:50:51;;;;;;;46.40;20.30;;;;;;;4.51;66.31;100721.67;24520;1356;3026775;-70
2021/11/14 06:53:19;;;;;;;49.10;23.00;;;;;;;4.60;66.17;100714.27;24534;1357;3026609;-77
2021/11/14 06:55:48;;;;;;;55.20;22.00;;;;;;;4.73;65.82;100717.88;24487;1358;3067727;-74
2021/11/14 06:58:17;;;;;;;52.60;24.40;;;;;;;4.77;65.88;100719.38;24494;1361;3026477;-72
2021/11/14 07:00:47;;;;;;;53.10;23.70;;;;;;;4.81;65.54;100715.14;24496;1355;3053192;-75
2021/11/14 07:03:16;;;;;;;53.60;23.90;;;;;;;4.81;65.66;100718.09;24467;1355;3026933;-71
2021/11/14 07:05:45;;;;;;;45.20;21.70;;;;;;;4.96;65.35;100715.73;24411;1356;3026785;-77
2021/11/14 07:08:15;;;;;;;55.50;23.60;;;;;;;5.06;65.22;100715.05;24480;1361;3026723;-72
2021/11/14 07:10:45;;;;;;;46.70;23.30;;;;;;;5.11;65.03;100711.83;24438;1358;3073005;-70
2021/11/14 07:13:13;;;;;;;53.30;26.00;;;;;;;5.18;65.01;100718.13;24466;1358;3026412;-74
2021/11/14 07:15:42;;;;;;;48.20;23.20;;;;;;;5.32;64.74;100713.02;24489;1358;3053760;-75
2021/11/14 07:18:11;;;;;;;56.40;23.30;;;;;;;5.42;64.29;100708.82;24491;1355;3026760;-79
2021/11/14 07:20:40;;;;;;;59.30;26.00;;;;;;;5.48;63.92;100708.52;24454;1361;3052392;-75
2021/11/14 07:23:09;;;;;;;58.90;24.70;;;;;;;5.49;64.08;100706.61;24420;1356;3026581;-76
2021/11/14 07:25:38;;;;;;;51.70;24.50;;;;;;;5.56;64.00;100704.55;24459;1358;3051707;-75
2021/11/14 07:28:07;;;;;;;52.20;23.40;;;;;;;5.65;63.85;100704.71;24472;1357;3026714;-69
2021/11/14 07:30:38;;;;;;;55.00;25.00;;;;;;;5.74;63.69;100701.39;24487;1356;3058722;-72
2021/11/14 07:33:07;;;;;;;52.30;22.50;;;;;;;5.83;63.60;100694.94;24493;1355;3026257;-72
2021/11/14 07:35:36;;;;;;;49.70;23.50;;;;;;;5.95;63.09;100695.74;24491;1357;3051929;-73
2021/11/14 07:38:05;;;;;;;59.10;23.00;;;;;;;5.97;62.83;100696.73;24440;1358;3026577;-72
2021/11/14 07:40:34;;;;;;;51.70;23.60;;;;;;;6.04;62.85;100699.05;24372;1355;3026811;-77
2021/11/14 07:43:04;;;;;;;53.00;24.40;;;;;;;6.09;62.82;100696.17;24487;1359;3051402;-72
2021/11/14 07:45:33;;;;;;;53.00;23.20;;;;;;;6.17;62.51;100698.94;24475;1354;3028307;-71
2021/11/14 07:48:03;;;;;;;47.60;22.90;;;;;;;6.26;62.26;100702.39;24460;1354;3050296;-75
2021/11/14 07:50:32;;;;;;;53.80;23.70;;;;;;;6.32;62.03;100697.73;24479;1354;3026755;-75
2021/11/14 07:53:02;;;;;;;60.00;24.80;;;;;;;6.39;61.93;100698.96;24471;1357;3026929;-72
2021/11/14 07:55:31;;;;;;;54.10;25.10;;;;;;;6.37;61.91;100697.42;24381;1357;3026425;-75
2021/11/14 07:58:09;;;;;;;53.60;26.40;;;;;;;6.53;61.82;100698.45;24465;1357;3055646;-71
2021/11/14 08:00:38;;;;;;;49.00;24.20;;;;;;;6.63;61.68;100695.42;24485;1356;3026615;-73
2021/11/14 08:03:10;;;;;;;49.00;23.70;;;;;;;6.77;61.66;100697.86;24483;1355;3049983;-77
2021/11/14 08:05:40;;;;;;;46.30;23.00;;;;;;;6.89;61.19;100691.79;24280;1355;3289332;-72
2021/11/14 08:08:09;;;;;;;52.70;23.50;;;;;;;6.97;60.88;100690.55;24446;1359;3026486;-73
2021/11/14 08:10:38;;;;;;;55.60;25.50;;;;;;;7.01;60.69;100693.92;24483;1357;3052227;-76
2021/11/14 08:13:07;;;;;;;46.70;22.60;;;;;;;7.12;60.48;100690.34;24466;1357;3026696;-74
2021/11/14 08:15:37;;;;;;;50.70;22.60;;;;;;;7.18;60.39;100686.17;24469;1360;3058450;-70
2021/11/14 08:18:06;;;;;;;48.10;23.60;;;;;;;7.21;60.34;100681.55;24487;1359;3027099;-74
2021/11/14 08:20:36;;;;;;;47.80;23.40;;;;;;;7.31;60.19;100676.39;24496;1354;3051535;-73
2021/11/14 08:23:07;;;;;;;46.30;21.70;;;;;;;7.40;59.68;100676.67;24491;1354;3027497;-75
2021/11/14 08:25:36;;;;;;;46.10;21.20;;;;;;;7.41;59.49;100673.69;24472;1353;3026294;-75
2021/11/14 08:28:13;;;;;;;43.80;19.70;;;;;;;7.39;59.44;100674.61;24455;1354;3054698;-70
2021/11/14 08:30:42;;;;;;;49.60;21.00;;;;;;;7.45;59.16;100667.11;24511;1354;3026725;-71
2021/11/14 08:33:12;;;;;;;46.40;20.80;;;;;;;7.52;59.12;100663.42;24487;1360;3028857;-73
2021/11/14 08:35:41;;;;;;;43.30;20.90;;;;;;;7.61;58.99;100665.45;24452;1357;3053599;-68
2021/11/14 08:38:10;;;;;;;46.80;22.70;;;;;;;7.66;58.87;100659.17;24450;1361;3026415;-74
2021/11/14 08:40:39;;;;;;;48.50;23.20;;;;;;;7.76;58.64;100655.59;24434;1357;3056208;-70
2021/11/14 08:43:08;;;;;;;42.60;20.10;;;;;;;7.81;58.34;100657.70;24498;1357;3027420;-71
2021/11/14 08:45:38;;;;;;;41.30;19.20;;;;;;;7.87;57.72;100657.86;24420;1358;3048355;-69
2021/11/14 08:48:07;;;;;;;41.20;17.00;;;;;;;7.91;57.65;100657.91;24436;1358;3028275;-74
2021/11/14 08:50:39;;;;;;;43.30;18.80;;;;;;;7.99;57.44;100654.89;24515;1357;3026678;-69
2021/11/14 08:53:08;;;;;;;40.80;18.40;;;;;;;8.13;57.13;100656.73;24458;1358;3051360;-78
2021/11/14 08:55:37;;;;;;;32.60;17.40;;;;;;;8.19;56.78;100648.66;24378;1350;3026761;-70
2021/11/14 08:58:06;;;;;;;41.30;18.50;;;;;;;8.24;56.71;100648.67;24452;1351;3067155;-73
2021/11/14 09:00:35;;;;;;;40.20;18.50;;;;;;;8.33;56.57;100645.79;24464;1357;3029769;-72
2021/11/14 09:03:06;;;;;;;45.40;19.00;;;;;;;8.36;56.53;100640.10;24486;1357;3053834;-71
2021/11/14 09:05:36;;;;;;;40.70;18.70;;;;;;;8.39;56.38;100635.46;24426;1358;3027408;-71
2021/11/14 09:08:06;;;;;;;42.70;18.10;;;;;;;8.48;56.48;100632.42;24500;1357;3027322;-74
2021/11/14 09:10:35;;;;;;;36.00;17.80;;;;;;;8.58;56.45;100626.67;24450;1357;3050846;-69
2021/11/14 09:13:05;;;;;;;35.80;16.40;;;;;;;8.66;56.36;100625.69;24512;1351;3026466;-74
2021/11/14 09:15:58;;;;;;;35.90;17.80;;;;;;;8.75;55.56;100621.90;24470;1357;3049291;-71
2021/11/14 09:18:28;;;;;;;38.70;16.40;;;;;;;8.80;55.46;100620.66;24517;1355;3051663;-69
2021/11/14 09:20:57;;;;;;;38.10;17.20;;;;;;;8.85;55.42;100619.62;24470;1357;3026341;-76
2021/11/14 09:23:29;;;;;;;33.60;17.40;;;;;;;8.93;55.09;100620.05;24395;1357;3048111;-67
2021/11/14 09:25:58;;;;;;;41.90;17.70;;;;;;;8.93;54.88;100611.64;24455;1357;3026343;-74
2021/11/14 09:28:26;;;;;;;36.20;16.20;;;;;;;9.01;54.94;100609.27;24453;1360;3026898;-74
2021/11/14 09:30:56;;;;;;;41.40;16.10;;;;;;;9.06;54.48;100609.62;24448;1357;3048334;-73
2021/11/14 09:33:26;;;;;;;33.30;15.10;;;;;;;9.14;54.33;100610.73;24486;1357;3027418;-72
2021/11/14 09:35:56;;;;;;;32.60;14.80;;;;;;;9.23;53.80;100607.95;24361;1361;3070857;-76
2021/11/14 09:38:28;;;;;;;33.30;14.70;;;;;;;9.29;53.55;100604.60;24449;1360;3028781;-73
2021/11/14 09:40:58;;;;;;;32.70;14.20;;;;;;;9.32;53.35;100602.55;24519;1358;3053663;-70
2021/11/14 09:43:28;;;;;;;34.30;15.20;;;;;;;9.40;53.10;100603.50;24441;1358;3026937;-69
2021/11/14 09:45:57;;;;;;;29.60;14.10;;;;;;;9.48;53.14;100602.13;24456;1358;3026870;-73
2021/11/14 09:48:28;;;;;;;29.20;14.90;;;;;;;9.55;52.89;100600.81;24511;1357;3026817;-73
2021/11/14 09:50:58;;;;;;;34.00;14.70;;;;;;;9.65;52.63;100599.55;24449;1357;3070301;-73
2021/11/14 09:53:33;;;;;;;42.90;16.30;;;;;;;9.78;52.49;100595.91;24443;1357;3026567;-76
2021/11/14 09:56:03;;;;;;;40.00;16.90;;;;;;;9.76;52.41;100592.48;24487;1348;3050551;-72
2021/11/14 09:58:32;;;;;;;31.70;14.70;;;;;;;9.90;52.19;100586.35;24500;1356;3027143;-66
2021/11/14 10:01:05;;;;;;;31.50;14.60;;;;;;;9.99;51.76;100583.54;24477;1357;3026351;-74
2021/11/14 10:03:34;;;;;;;30.50;15.20;;;;;;;10.07;51.50;100582.16;24500;1360;3027120;-75
2021/11/14 10:06:04;;;;;;;29.20;14.70;;;;;;;10.13;51.23;100580.51;24481;1357;3026622;-73
2021/11/14 10:08:42;;;;;;;37.20;15.80;;;;;;;10.10;51.10;100575.90;24538;1358;3026562;-74
2021/11/14 10:11:11;;;;;;;31.60;13.80;;;;;;;10.23;51.04;100569.08;24484;1360;3054875;-73
2021/11/14 10:13:45;;;;;;;26.50;13.00;;;;;;;10.30;50.73;100572.79;24502;1362;3026940;-75
2021/11/14 10:16:20;;;;;;;31.70;12.80;;;;;;;10.39;50.55;100567.56;24470;1358;3049565;-67
2021/11/14 10:19:06;;;;;;;26.20;12.70;;;;;;;10.45;50.25;100567.48;24487;1361;3055110;-71
2021/11/14 10:21:35;;;;;;;26.10;11.60;;;;;;;10.46;50.06;100561.83;24465;1357;3052735;-73
2021/11/14 10:24:06;;;;;;;28.10;12.20;;;;;;;10.51;50.22;100560.56;24489;1362;3026704;-72
2021/11/14 10:26:35;;;;;;;25.20;12.30;;;;;;;10.62;50.41;100557.65;24491;1361;3054493;-72
2021/11/14 10:29:09;;;;;;;29.20;12.50;;;;;;;10.59;49.79;100558.83;24502;1358;3026836;-72
2021/11/14 10:31:39;;;;;;;29.60;12.30;;;;;;;10.60;49.72;100556.69;24499;1357;3057849;-74
2021/11/14 10:34:08;;;;;;;25.70;12.00;;;;;;;10.62;49.83;100556.59;24471;1357;3028045;-68
2021/11/14 10:36:37;;;;;;;30.50;12.70;;;;;;;10.66;49.86;100556.41;24399;1357;3026553;-72
2021/11/14 10:39:11;;;;;;;30.00;13.00;;;;;;;10.72;50.01;100555.43;24456;1357;3058505;-72
2021/11/14 10:41:43;;;;;;;28.30;12.60;;;;;;;10.83;49.74;100557.61;24459;1356;3026940;-68
2021/11/14 10:44:14;;;;;;;26.40;11.90;;;;;;;10.92;49.36;100550.92;24496;1357;3027017;-74
2021/11/14 10:46:43;;;;;;;29.90;11.20;;;;;;;10.95;49.21;100546.91;24489;1360;3026936;-74
2021/11/14 10:49:12;;;;;;;27.50;11.80;;;;;;;10.96;49.16;100542.30;24452;1351;3026652;-75
2021/11/14 10:51:41;;;;;;;23.70;11.20;;;;;;;11.00;49.04;100534.58;24408;1357;3028666;-69
2021/11/14 10:54:10;;;;;;;24.60;12.40;;;;;;;11.01;49.06;100532.42;24459;1358;3053188;-74
2021/11/14 10:56:39;;;;;;;33.00;12.50;;;;;;;11.06;48.91;100531.50;24445;1357;3027010;-71
2021/11/14 10:59:08;;;;;;;24.90;11.60;;;;;;;11.12;48.63;100535.96;24473;1357;3051045;-72
2021/11/14 11:01:38;;;;;;;25.40;12.00;;;;;;;11.17;48.47;100533.30;24483;1357;3026386;-69
2021/11/14 11:04:08;;;;;;;29.90;12.10;;;;;;;11.16;48.68;100530.55;24464;1357;3052267;-68
2021/11/14 11:06:37;;;;;;;30.90;11.80;;;;;;;11.19;48.48;100523.55;24510;1361;3027047;-69
2021/11/14 11:09:06;;;;;;;27.90;11.90;;;;;;;11.20;48.61;100527.91;24482;1358;3026516;-73
2021/11/14 11:11:41;;;;;;;29.90;13.10;;;;;;;11.21;48.50;100525.56;24465;1360;3054063;-72
2021/11/14 11:14:10;;;;;;;31.00;14.20;;;;;;;11.20;48.52;100518.08;24471;1357;3051697;-70
2021/11/14 11:16:39;;;;;;;29.60;11.20;;;;;;;11.18;48.54;100521.48;24474;1358;3026478;-72